Ameagle, West Virginia
Current Conditions -  °F | °C
As of 7:51 PM on Monday 22 Dec 2014 (Local Time) from KBKW Reporting Station
Overcast Overcast  
Wind Chill: 27°   Ceiling: 700
Heat Index: 37°   Visibility: 10mi
Dew Point: 33°   Wind: 18mph
Humidity: 86%   Direction: 130°SE
Pressure: 29.93"   Gusts: 30mph
Location:  37.95°N, 81.42°W
Report Text: KBKW 230051Z AUTO 13016G26KT 10SM OVC007 03/01 A2993 RMK AO2 PK WND 13026/0045 SLP152 T00280006
Loading
Personal Weather Stations






























Interactive Weather Map New forecast layout! Learn more

10-Day Weather Forecast

Advertisements
Track Severe Weather on mobile